Time;durP1;ratioP1;P1;durP2;ratioP2;P2;SDS_P1;SDS_P2;PMS_P1;PMS_P2;Temp;Humidity;BMP_temperature;BMP_pressure;BME280_temperature;BME280_humidity;BME280_pressure;Samples;Min_cycle;Max_cycle;Signal;HPM_P1;HPM_P2
2022/10/26 00:01:26;;;;;;;;;;;;;;;;;;5075432;28;19921;-71
2022/10/26 00:03:52;;;;;;;;;;;;;;;;;;5074771;28;19975;-71
2022/10/26 00:06:18;;;;;;;;;;;11.70;99.90;;;;;;5066310;28;20348;-71
2022/10/26 00:08:45;;;;;;;;;;;11.30;99.90;;;;;;5055297;28;19921;-71
2022/10/26 00:11:11;;;;;;;;;;;11.20;99.90;;;;;;5055257;28;20341;-72
2022/10/26 00:13:37;;;;;;;;;;;11.30;99.90;;;;;;5055637;28;19927;-72
2022/10/26 00:16:09;;;;;;;;;;;11.40;99.90;;;;;;5072043;28;19921;-71
2022/10/26 00:18:34;;;;;;;;;;;11.20;99.90;;;;;;5061069;28;19927;-72
2022/10/26 00:21:04;;;;;;;;;;;11.10;99.90;;;;;;5113900;28;20002;-72
2022/10/26 00:23:30;;;;;;;;;;;11.30;99.90;;;;;;5093673;28;19973;-71
2022/10/26 00:25:56;;;;;;;;;;;11.30;99.90;;;;;;5094672;28;19927;-71
2022/10/26 00:28:21;;;;;;;;;;;11.50;99.90;;;;;;5093003;28;19920;-72
2022/10/26 00:30:47;;;;;;;;;;;11.10;99.90;;;;;;5057169;28;19971;-71
2022/10/26 00:33:12;;;;;;;;;;;11.30;99.90;;;;;;5093174;28;20051;-71
2022/10/26 00:35:38;;;;;;;;;;;11.30;99.90;;;;;;5074199;28;19927;-71
2022/10/26 00:38:03;;;;;;;;;;;11.30;99.90;;;;;;5057264;28;19920;-71
2022/10/26 00:40:29;;;;;;;;;;;11.10;99.90;;;;;;5095401;28;20415;-71
2022/10/26 00:42:55;;;;;;;;;;;11.20;99.90;;;;;;5071008;28;19924;-71
2022/10/26 00:45:25;;;;;;;;;;;11.00;99.90;;;;;;5070344;28;20014;-71
2022/10/26 00:47:55;;;;;;;;;;;11.10;99.90;;;;;;5072704;28;19920;-71
2022/10/26 00:50:23;;;;;;;;;;;11.00;99.90;;;;;;5072665;28;19920;-71
2022/10/26 00:52:49;;;;;;;;;;;11.10;99.90;;;;;;5074381;28;20567;-71
2022/10/26 00:55:20;;;;;;;;;;;11.10;99.90;;;;;;5096987;28;19927;-71
2022/10/26 00:57:46;;;;;;;;;;;10.90;99.90;;;;;;5057618;28;19935;-71
2022/10/26 01:00:12;;;;;;;;;;;10.80;99.90;;;;;;5070867;28;19927;-71
2022/10/26 01:02:37;;;;;;;;;;;10.80;99.90;;;;;;5072157;28;20393;-71
2022/10/26 01:05:03;;;;;;;;;;;11.00;99.90;;;;;;5091711;28;20003;-71
2022/10/26 01:07:29;;;;;;;;;;;11.00;99.90;;;;;;5070583;28;19920;-71
2022/10/26 01:09:55;;;;;;;;;;;;;;;;;;5073564;28;20377;-72
2022/10/26 01:12:20;;;;;;;;;;;10.80;99.90;;;;;;5056428;28;19920;-71
2022/10/26 01:14:46;;;;;;;;;;;10.90;99.90;;;;;;5091541;28;19927;-71
2022/10/26 01:17:24;;;;;;;;;;;10.80;99.90;;;;;;5091662;28;20287;-71
2022/10/26 01:20:00;;;;;;;;;;;10.90;99.90;;;;;;5063791;28;20290;-71
2022/10/26 01:22:35;;;;;;;;;;;10.80;99.90;;;;;;5070450;28;19924;-71
2022/10/26 01:25:01;;;;;;;;;;;10.80;99.90;;;;;;5073705;28;20441;-71
2022/10/26 01:27:47;;;;;;;;;;;10.90;99.90;;;;;;5074393;28;19977;-71
2022/10/26 01:30:34;;;;;;;;;;;10.80;99.90;;;;;;5071698;28;19928;-72
2022/10/26 01:33:08;;;;;;;;;;;10.80;99.90;;;;;;5053864;28;19978;-71
2022/10/26 01:35:48;;;;;;;;;;;10.70;99.90;;;;;;5071119;28;20394;-71
2022/10/26 01:38:33;;;;;;;;;;;10.70;99.90;;;;;;5071886;28;20445;-71
2022/10/26 01:41:18;;;;;;;;;;;10.70;99.90;;;;;;5053790;28;19929;-71
2022/10/26 01:43:44;;;;;;;;;;;;;;;;;;5071768;28;19978;-71
2022/10/26 01:46:10;;;;;;;;;;;10.80;99.90;;;;;;5065685;28;19924;-71
2022/10/26 01:48:36;;;;;;;;;;;10.80;99.90;;;;;;5105949;28;20011;-71
2022/10/26 01:51:05;;;;;;;;;;;;;;;;;;5094090;28;20399;-71
2022/10/26 01:53:30;;;;;;;;;;;10.60;99.90;;;;;;5112234;28;19920;-71
2022/10/26 01:55:57;;;;;;;;;;;10.50;99.90;;;;;;5111698;28;19920;-71
2022/10/26 01:58:30;;;;;;;;;;;10.50;99.90;;;;;;5080576;28;20385;-71
2022/10/26 02:01:17;;;;;;;;;;;10.40;99.90;;;;;;5057804;28;19975;-71
2022/10/26 02:03:48;;;;;;;;;;;10.70;99.90;;;;;;5073430;28;19974;-71
2022/10/26 02:06:14;;;;;;;;;;;10.60;99.90;;;;;;5070260;28;19932;-71
2022/10/26 02:08:55;;;;;;;;;;;10.70;99.90;;;;;;5070541;28;19920;-71
2022/10/26 02:11:30;;;;;;;;;;;10.60;99.90;;;;;;5070649;28;19920;-71
2022/10/26 02:14:01;;;;;;;;;;;10.60;99.90;;;;;;5069527;28;20012;-71
2022/10/26 02:16:42;;;;;;;;;;;10.70;99.90;;;;;;5086772;28;20015;-71
2022/10/26 02:19:34;;;;;;;;;;;10.40;99.90;;;;;;5073498;28;20297;-71
2022/10/26 02:22:03;;;;;;;;;;;10.60;99.90;;;;;;5090807;28;19920;-71
2022/10/26 02:24:29;;;;;;;;;;;10.60;99.90;;;;;;5059714;28;19920;-71
2022/10/26 02:26:56;;;;;;;;;;;10.70;99.90;;;;;;5077199;28;20010;-71
2022/10/26 02:29:22;;;;;;;;;;;10.40;99.90;;;;;;5095354;28;19920;-71
2022/10/26 02:31:49;;;;;;;;;;;10.50;99.90;;;;;;5076624;28;19923;-72
2022/10/26 02:34:17;;;;;;;;;;;10.70;99.90;;;;;;5096834;28;20018;-71
2022/10/26 02:36:43;;;;;;;;;;;10.50;99.90;;;;;;5097448;28;19920;-71
2022/10/26 02:39:10;;;;;;;;;;;10.60;99.90;;;;;;5098954;28;20007;-72
2022/10/26 02:41:38;;;;;;;;;;;10.60;99.90;;;;;;5102006;28;19966;-72
2022/10/26 02:44:11;;;;;;;;;;;10.40;99.90;;;;;;5076066;28;20454;-72
2022/10/26 02:46:36;;;;;;;;;;;10.30;99.90;;;;;;5076882;28;20389;-71
2022/10/26 02:49:02;;;;;;;;;;;10.50;99.90;;;;;;5086358;28;19969;-71
2022/10/26 02:51:34;;;;;;;;;;;10.40;99.90;;;;;;5080368;28;19920;-71
2022/10/26 02:54:17;;;;;;;;;;;10.40;99.90;;;;;;5114736;28;19951;-71
2022/10/26 02:56:49;;;;;;;;;;;10.40;99.90;;;;;;5096818;28;19927;-71
2022/10/26 02:59:15;;;;;;;;;;;10.50;99.90;;;;;;5115114;28;19919;-71
2022/10/26 03:01:41;;;;;;;;;;;10.40;99.90;;;;;;5095676;28;19927;-71
2022/10/26 03:04:07;;;;;;;;;;;10.40;99.90;;;;;;5114325;28;19943;-71
2022/10/26 03:06:32;;;;;;;;;;;10.50;99.90;;;;;;5076552;28;19921;-71
2022/10/26 03:08:58;;;;;;;;;;;10.50;99.90;;;;;;5072814;28;19927;-71
2022/10/26 03:11:23;;;;;;;;;;;10.50;99.90;;;;;;5074277;28;20301;-71
2022/10/26 03:13:49;;;;;;;;;;;11.10;99.90;;;;;;5072776;28;19920;-71
2022/10/26 03:16:14;;;;;;;;;;;10.30;99.90;;;;;;5072969;28;19927;-71
2022/10/26 03:18:40;;;;;;;;;;;10.30;99.90;;;;;;5055899;28;20421;-71
2022/10/26 03:21:05;;;;;;;;;;;10.30;99.90;;;;;;5056619;28;20302;-71
2022/10/26 03:23:30;;;;;;;;;;;10.40;99.90;;;;;;5078023;28;20069;-71
2022/10/26 03:25:57;;;;;;;;;;;10.90;99.90;;;;;;5071929;28;19928;-71
2022/10/26 03:28:22;;;;;;;;;;;10.40;99.90;;;;;;5072717;28;19927;-71
2022/10/26 03:30:48;;;;;;;;;;;10.80;99.90;;;;;;5072555;28;19920;-71
2022/10/26 03:33:13;;;;;;;;;;;10.40;99.90;;;;;;5073921;28;20282;-71
2022/10/26 03:35:39;;;;;;;;;;;10.40;99.90;;;;;;5081270;28;19920;-71
2022/10/26 03:38:04;;;;;;;;;;;10.40;99.90;;;;;;5105146;28;19923;-71
2022/10/26 03:40:30;;;;;;;;;;;10.50;99.90;;;;;;5096364;28;19975;-71
2022/10/26 03:42:55;;;;;;;;;;;10.60;99.90;;;;;;5096038;28;19924;-71
2022/10/26 03:45:21;;;;;;;;;;;10.80;99.90;;;;;;5078303;28;19977;-71
2022/10/26 03:47:47;;;;;;;;;;;;;;;;;;5078849;28;20298;-71
2022/10/26 03:50:13;;;;;;;;;;;10.30;99.90;;;;;;5096166;28;19924;-71
2022/10/26 03:52:39;;;;;;;;;;;10.40;99.90;;;;;;5097872;28;20404;-71
2022/10/26 03:55:05;;;;;;;;;;;10.40;99.90;;;;;;5093121;28;19920;-71
2022/10/26 03:57:30;;;;;;;;;;;10.10;99.90;;;;;;5075684;28;19973;-71
2022/10/26 03:59:56;;;;;;;;;;;10.20;99.90;;;;;;5075406;28;20003;-71
2022/10/26 04:02:21;;;;;;;;;;;10.10;99.90;;;;;;5074334;28;19924;-71
2022/10/26 04:04:47;;;;;;;;;;;10.30;99.90;;;;;;5074592;28;19924;-71
2022/10/26 04:07:12;;;;;;;;;;;10.30;99.90;;;;;;5076434;28;19924;-71
2022/10/26 04:09:38;;;;;;;;;;;10.30;99.90;;;;;;5076506;28;19943;-73
2022/10/26 04:12:03;;;;;;;;;;;10.30;99.90;;;;;;5075450;28;19919;-73
2022/10/26 04:14:29;;;;;;;;;;;10.40;99.90;;;;;;5057813;28;19959;-74
2022/10/26 04:16:54;;;;;;;;;;;10.40;99.90;;;;;;5075169;28;20043;-73
2022/10/26 04:19:20;;;;;;;;;;;10.30;99.90;;;;;;5093088;28;19920;-73
2022/10/26 04:21:45;;;;;;;;;;;10.10;99.90;;;;;;5075105;28;19927;-73
2022/10/26 04:24:11;;;;;;;;;;;10.40;99.90;;;;;;5068588;28;19924;-73
2022/10/26 04:26:36;;;;;;;;;;;10.40;99.90;;;;;;5055207;28;19947;-73
2022/10/26 04:29:05;;;;;;;;;;;10.40;99.90;;;;;;5065312;28;20703;-73
2022/10/26 04:31:31;;;;;;;;;;;10.60;99.90;;;;;;5104119;28;20012;-73
2022/10/26 04:33:56;;;;;;;;;;;10.60;99.90;;;;;;5074002;28;19932;-74
2022/10/26 04:36:22;;;;;;;;;;;10.40;99.90;;;;;;5092989;28;19920;-74
2022/10/26 04:38:48;;;;;;;;;;;10.70;99.90;;;;;;5074600;28;19920;-73
2022/10/26 04:41:13;;;;;;;;;;;10.60;99.90;;;;;;5046682;28;19966;-74
2022/10/26 04:43:38;;;;;;;;;;;10.60;99.90;;;;;;5106942;28;20030;-74
2022/10/26 04:46:04;;;;;;;;;;;10.70;99.90;;;;;;5094105;28;20015;-73
2022/10/26 04:48:30;;;;;;;;;;;10.60;99.90;;;;;;5094619;28;19958;-73
2022/10/26 04:50:58;;;;;;;;;;;10.70;99.90;;;;;;5094720;28;19927;-74
2022/10/26 04:53:24;;;;;;;;;;;10.60;99.90;;;;;;5068856;28;20011;-74
2022/10/26 04:55:54;;;;;;;;;;;10.70;99.90;;;;;;5090237;28;20026;-74
2022/10/26 04:58:20;;;;;;;;;;;10.60;99.90;;;;;;5093281;28;19920;-74
2022/10/26 05:00:45;;;;;;;;;;;10.60;99.90;;;;;;5073293;28;20417;-73
2022/10/26 05:03:11;;;;;;;;;;;10.70;99.90;;;;;;5092773;28;19931;-74
2022/10/26 05:05:36;;;;;;;;;;;10.90;99.90;;;;;;5073629;28;19931;-73
2022/10/26 05:08:02;;;;;;;;;;;10.60;99.90;;;;;;5074281;28;19920;-74
2022/10/26 05:10:28;;;;;;;;;;;10.60;99.90;;;;;;5074277;28;20301;-74
2022/10/26 05:12:54;;;;;;;;;;;10.80;99.90;;;;;;5074212;28;19920;-73
2022/10/26 05:15:20;;;;;;;;;;;10.70;99.90;;;;;;5092448;28;20024;-74
2022/10/26 05:17:46;;;;;;;;;;;10.70;99.90;;;;;;5101166;28;19994;-74
2022/10/26 05:20:12;;;;;;;;;;;10.90;99.90;;;;;;5070477;28;19921;-74
2022/10/26 05:22:41;;;;;;;;;;;10.80;99.90;;;;;;5072107;28;19928;-74
2022/10/26 05:25:07;;;;;;;;;;;10.80;99.90;;;;;;5111626;28;19920;-74
2022/10/26 05:27:32;;;;;;;;;;;10.80;99.90;;;;;;5078229;28;19920;-74
2022/10/26 05:29:57;;;;;;;;;;;10.70;99.90;;;;;;5111364;28;20308;-73
2022/10/26 05:32:23;;;;;;;;;;;10.80;99.90;;;;;;5094437;28;19920;-73
2022/10/26 05:34:48;;;;;;;;;;;11.00;99.90;;;;;;5111619;28;20392;-73
2022/10/26 05:37:14;;;;;;;;;;;11.00;99.90;;;;;;5113203;28;19920;-73
2022/10/26 05:39:39;;;;;;;;;;;10.90;99.90;;;;;;5099029;28;19959;-74
2022/10/26 05:42:05;;;;;;;;;;;10.80;99.90;;;;;;5067369;28;20364;-74
2022/10/26 05:44:31;;;;;;;;;;;11.50;99.90;;;;;;5053199;28;19945;-74
2022/10/26 05:46:56;;;;;;;;;;;11.10;99.90;;;;;;5055313;28;19927;-74
2022/10/26 05:49:21;;;;;;;;;;;11.00;99.90;;;;;;5053820;28;20259;-73
2022/10/26 05:51:47;;;;;;;;;;;10.90;99.90;;;;;;5070564;28;19924;-73
2022/10/26 05:54:12;;;;;;;;;;;11.00;99.90;;;;;;5063793;28;20056;-73
2022/10/26 05:56:39;;;;;;;;;;;11.10;99.90;;;;;;5075902;28;19920;-73
2022/10/26 05:59:09;;;;;;;;;;;10.90;99.90;;;;;;5070780;28;19928;-73
2022/10/26 06:01:54;;;;;;;;;;;11.10;99.90;;;;;;5075114;28;19920;-73
2022/10/26 06:04:24;;;;;;;;;;;11.00;99.90;;;;;;5061224;28;20024;-73
2022/10/26 06:06:53;;;;;;;;;;;11.10;99.90;;;;;;5077407;28;19920;-73
2022/10/26 06:09:18;;;;;;;;;;;11.20;99.90;;;;;;5071749;28;20671;-74
2022/10/26 06:11:44;;;;;;;;;;;;;;;;;;5067996;28;19924;-74
2022/10/26 06:14:10;;;;;;;;;;;11.30;99.90;;;;;;5067797;28;19946;-74
2022/10/26 06:16:41;;;;;;;;;;;11.20;99.90;;;;;;5083051;28;19935;-74
2022/10/26 06:19:19;;;;;;;;;;;11.40;99.90;;;;;;5068623;28;20685;-74
2022/10/26 06:22:07;;;;;;;;;;;11.40;99.90;;;;;;5044826;28;20056;-75
2022/10/26 06:24:48;;;;;;;;;;;11.20;99.90;;;;;;5060835;28;19984;-74
2022/10/26 06:27:16;;;;;;;;;;;11.30;99.90;;;;;;5058758;28;19986;-74
2022/10/26 06:30:11;;;;;;;;;;;11.30;99.90;;;;;;5080916;28;20314;-74
2022/10/26 06:32:43;;;;;;;;;;;11.10;99.90;;;;;;5051652;28;19920;-74
2022/10/26 06:35:17;;;;;;;;;;;11.30;99.90;;;;;;5076979;28;19927;-74
2022/10/26 06:37:44;;;;;;;;;;;11.30;99.90;;;;;;5043809;28;20007;-74
2022/10/26 06:40:10;;;;;;;;;;;11.20;99.90;;;;;;5071640;28;19924;-74
2022/10/26 06:42:36;;;;;;;;;;;11.30;99.90;;;;;;5072972;28;19924;-74
2022/10/26 06:45:01;;;;;;;;;;;11.10;99.90;;;;;;5072845;28;19928;-73
2022/10/26 06:47:35;;;;;;;;;;;11.40;99.90;;;;;;5056869;28;19990;-71
2022/10/26 06:50:03;;;;;;;;;;;11.30;99.90;;;;;;5056204;28;19927;-71
2022/10/26 06:52:50;;;;;;;;;;;11.10;99.90;;;;;;5082143;28;20321;-71
2022/10/26 06:55:16;;;;;;;;;;;11.20;99.90;;;;;;5094004;28;20386;-72
2022/10/26 06:57:42;;;;;;;;;;;11.20;99.90;;;;;;5094714;28;19928;-71
2022/10/26 07:00:21;;;;;;;;;;;11.80;99.90;;;;;;5095099;28;19927;-72
2022/10/26 07:02:48;;;;;;;;;;;11.20;99.90;;;;;;5094364;28;19931;-71
2022/10/26 07:05:13;;;;;;;;;;;11.30;99.90;;;;;;5075729;28;20339;-72
2022/10/26 07:07:40;;;;;;;;;;;11.40;99.90;;;;;;5093462;28;19926;-71
2022/10/26 07:10:06;;;;;;;;;;;11.30;99.90;;;;;;5058394;28;19928;-72
2022/10/26 07:12:31;;;;;;;;;;;11.20;99.90;;;;;;5072925;28;20003;-71
2022/10/26 07:14:57;;;;;;;;;;;11.40;99.90;;;;;;5093615;28;19931;-72
2022/10/26 07:17:23;;;;;;;;;;;11.60;99.90;;;;;;5076171;28;19920;-72
2022/10/26 07:19:48;;;;;;;;;;;11.40;99.90;;;;;;5093611;28;19928;-72
2022/10/26 07:22:14;;;;;;;;;;;11.60;99.90;;;;;;5075787;28;19920;-72
2022/10/26 07:24:39;;;;;;;;;;;11.60;99.90;;;;;;5058643;28;19927;-73
2022/10/26 07:27:05;;;;;;;;;;;11.70;99.90;;;;;;5055545;28;19927;-72
2022/10/26 07:29:30;;;;;;;;;;;11.70;99.90;;;;;;5072951;28;19920;-72
2022/10/26 07:31:56;;;;;;;;;;;11.40;99.90;;;;;;5059389;28;19920;-72
2022/10/26 07:34:21;;;;;;;;;;;11.70;99.90;;;;;;5075444;28;19963;-72
2022/10/26 07:36:47;;;;;;;;;;;11.80;99.90;;;;;;5072357;28;20328;-73
2022/10/26 07:39:12;;;;;;;;;;;11.80;99.90;;;;;;5075690;28;19928;-71
2022/10/26 07:41:38;;;;;;;;;;;11.90;99.90;;;;;;5094876;28;19927;-72
2022/10/26 07:44:03;;;;;;;;;;;12.00;99.90;;;;;;5114997;28;19928;-72
2022/10/26 07:46:29;;;;;;;;;;;12.00;99.90;;;;;;5117084;28;19927;-72
2022/10/26 07:48:55;;;;;;;;;;;12.00;99.90;;;;;;5116011;28;19920;-72
2022/10/26 07:51:20;;;;;;;;;;;12.00;99.90;;;;;;5077120;28;19920;-72
2022/10/26 07:53:46;;;;;;;;;;;11.90;99.90;;;;;;5073481;28;20000;-71
2022/10/26 07:56:11;;;;;;;;;;;12.10;99.90;;;;;;5071766;28;19920;-73
2022/10/26 07:58:37;;;;;;;;;;;12.20;99.90;;;;;;5089903;28;19924;-73
2022/10/26 08:01:06;;;;;;;;;;;12.30;99.90;;;;;;5092824;28;20385;-72
2022/10/26 08:03:32;;;;;;;;;;;12.50;99.90;;;;;;5072837;28;19924;-74
2022/10/26 08:05:57;;;;;;;;;;;12.70;99.90;;;;;;5072776;28;19935;-72
2022/10/26 08:08:23;;;;;;;;;;;12.70;99.90;;;;;;5092805;28;19927;-71
2022/10/26 08:10:48;;;;;;;;;;;12.60;99.90;;;;;;5074928;28;19927;-71
2022/10/26 08:13:14;;;;;;;;;;;12.70;99.90;;;;;;5075623;28;19919;-71
2022/10/26 08:15:39;;;;;;;;;;;12.90;99.90;;;;;;5073720;28;19920;-72
2022/10/26 08:18:05;;;;;;;;;;;12.80;99.90;;;;;;5074269;28;19920;-71
2022/10/26 08:20:31;;;;;;;;;;;12.80;99.90;;;;;;5074623;28;19920;-71
2022/10/26 08:22:57;;;;;;;;;;;13.50;99.90;;;;;;5093278;28;20344;-72
2022/10/26 08:25:22;;;;;;;;;;;12.90;99.90;;;;;;5092360;28;19924;-71
2022/10/26 08:27:48;;;;;;;;;;;13.10;99.90;;;;;;5074842;28;19920;-71
2022/10/26 08:30:14;;;;;;;;;;;13.20;99.90;;;;;;5070225;28;19920;-71
2022/10/26 08:32:41;;;;;;;;;;;13.20;99.90;;;;;;5071498;28;19920;-72
2022/10/26 08:35:07;;;;;;;;;;;13.60;99.90;;;;;;5070353;28;19994;-72
2022/10/26 08:37:32;;;;;;;;;;;13.50;99.90;;;;;;5071363;28;19921;-72
2022/10/26 08:39:58;;;;;;;;;;;13.70;99.90;;;;;;5071462;28;19927;-71
2022/10/26 08:42:27;;;;;;;;;;;13.70;99.90;;;;;;5080921;28;20095;-71
2022/10/26 08:44:57;;;;;;;;;;;13.60;99.90;;;;;;5073584;28;19966;-71
2022/10/26 08:47:34;;;;;;;;;;;13.70;99.90;;;;;;5092396;28;19923;-71
2022/10/26 08:50:21;;;;;;;;;;;14.30;99.90;;;;;;5089483;28;19920;-71
2022/10/26 08:52:47;;;;;;;;;;;13.70;99.90;;;;;;5074268;28;20397;-71
2022/10/26 08:55:16;;;;;;;;;;;13.90;99.90;;;;;;5073158;28;19931;-71
2022/10/26 08:57:43;;;;;;;;;;;13.90;99.90;;;;;;5091975;28;19936;-72
2022/10/26 09:00:20;;;;;;;;;;;13.80;99.90;;;;;;5091289;28;19920;-72
2022/10/26 09:02:49;;;;;;;;;;;13.90;99.90;;;;;;5068099;28;19932;-71
2022/10/26 09:05:16;;;;;;;;;;;13.90;99.90;;;;;;5056439;28;19920;-71
2022/10/26 09:07:41;;;;;;;;;;;14.10;99.90;;;;;;5092271;28;19924;-71
2022/10/26 09:10:12;;;;;;;;;;;14.70;99.90;;;;;;5071350;28;19924;-72
2022/10/26 09:12:44;;;;;;;;;;;14.30;99.90;;;;;;5090591;28;19928;-72
2022/10/26 09:15:17;;;;;;;;;;;14.30;99.90;;;;;;5088589;28;20288;-72
2022/10/26 09:18:01;;;;;;;;;;;14.10;99.90;;;;;;5074100;28;20321;-72
2022/10/26 09:20:35;;;;;;;;;;;14.20;99.90;;;;;;5077599;28;20019;-72
2022/10/26 09:23:08;;;;;;;;;;;14.20;99.90;;;;;;5081156;28;20013;-72
2022/10/26 09:25:37;;;;;;;;;;;14.20;99.90;;;;;;5072002;28;19924;-72
2022/10/26 09:28:04;;;;;;;;;;;14.10;99.90;;;;;;5069628;28;19928;-72
2022/10/26 09:30:30;;;;;;;;;;;14.00;99.90;;;;;;5073574;28;19925;-72
2022/10/26 09:32:57;;;;;;;;;;;14.20;99.90;;;;;;5053106;28;19927;-72
2022/10/26 09:35:52;;;;;;;;;;;15.10;99.90;;;;;;5057467;28;19927;-71
2022/10/26 09:38:28;;;;;;;;;;;14.50;99.90;;;;;;5076004;28;19974;-72
2022/10/26 09:40:57;;;;;;;;;;;14.40;99.90;;;;;;5111825;28;19924;-72
2022/10/26 09:43:37;;;;;;;;;;;14.80;99.90;;;;;;5050530;28;19928;-72
2022/10/26 09:46:03;;;;;;;;;;;14.50;99.90;;;;;;5085149;28;19931;-72
2022/10/26 09:48:40;;;;;;;;;;;14.90;99.90;;;;;;5050272;28;19939;-73
2022/10/26 09:51:05;;;;;;;;;;;14.90;99.90;;;;;;5064143;28;19927;-72
2022/10/26 09:53:31;;;;;;;;;;;14.80;99.90;;;;;;5061370;28;19924;-71
2022/10/26 09:56:02;;;;;;;;;;;15.10;99.90;;;;;;5089019;28;20327;-71
2022/10/26 09:58:30;;;;;;;;;;;14.90;99.90;;;;;;5111339;28;19927;-71
2022/10/26 10:00:56;;;;;;;;;;;14.80;99.90;;;;;;5104222;28;19920;-71
2022/10/26 10:03:26;;;;;;;;;;;15.80;99.90;;;;;;5091312;28;19925;-71
2022/10/26 10:05:52;;;;;;;;;;;15.40;99.90;;;;;;5091133;28;19999;-71
2022/10/26 10:08:17;;;;;;;;;;;15.40;99.90;;;;;;5094538;28;19923;-71
2022/10/26 10:10:52;;;;;;;;;;;15.30;99.90;;;;;;5093450;28;20325;-72
2022/10/26 10:13:22;;;;;;;;;;;15.70;99.90;;;;;;5069842;28;19972;-71
2022/10/26 10:15:52;;;;;;;;;;;15.20;99.90;;;;;;5087637;28;19978;-71
2022/10/26 10:18:19;;;;;;;;;;;15.60;99.90;;;;;;5073051;28;20332;-71
2022/10/26 10:20:50;;;;;;;;;;;15.70;99.90;;;;;;5087894;28;19958;-71
2022/10/26 10:23:24;;;;;;;;;;;15.50;99.90;;;;;;5072947;28;19931;-71
2022/10/26 10:25:52;;;;;;;;;;;;;;;;;;5066176;28;19921;-71
2022/10/26 10:28:22;;;;;;;;;;;15.90;99.90;;;;;;5056060;28;19953;-70
2022/10/26 10:30:47;;;;;;;;;;;;;;;;;;5091026;28;20408;-70
2022/10/26 10:33:13;;;;;;;;;;;15.90;99.90;;;;;;5083539;28;19924;-70
2022/10/26 10:35:47;;;;;;;;;;;15.90;99.90;;;;;;5078041;28;19927;-70
2022/10/26 10:38:13;;;;;;;;;;;;;;;;;;5063726;28;19934;-70
2022/10/26 10:40:39;;;;;;;;;;;16.00;99.90;;;;;;5068409;28;20014;-70
2022/10/26 10:43:14;;;;;;;;;;;16.10;99.90;;;;;;5053332;28;19936;-70
2022/10/26 10:45:45;;;;;;;;;;;16.10;99.90;;;;;;5069916;28;19923;-70
2022/10/26 10:48:11;;;;;;;;;;;16.00;99.90;;;;;;5089615;28;19924;-71
2022/10/26 10:50:37;;;;;;;;;;;16.20;99.90;;;;;;5065673;28;19978;-70
2022/10/26 10:53:32;;;;;;;;;;;16.60;99.90;;;;;;5072766;28;19920;-74
2022/10/26 10:56:04;;;;;;;;;;;16.30;99.90;;;;;;5041862;28;19924;-70
2022/10/26 10:58:36;;;;;;;;;;;16.30;99.90;;;;;;5060157;28;19920;-70
2022/10/26 11:01:01;;;;;;;;;;;16.50;99.90;;;;;;5114384;28;19923;-70
2022/10/26 11:03:33;;;;;;;;;;;16.50;99.90;;;;;;5096306;28;20047;-70
2022/10/26 11:06:14;;;;;;;;;;;16.60;99.90;;;;;;5095574;28;19973;-70
2022/10/26 11:09:00;;;;;;;;;;;16.80;99.90;;;;;;5075191;28;20356;-70
2022/10/26 11:11:34;;;;;;;;;;;16.70;99.90;;;;;;5071496;28;20408;-71
2022/10/26 11:14:15;;;;;;;;;;;16.50;99.90;;;;;;5055307;28;19973;-71
2022/10/26 11:16:47;;;;;;;;;;;16.80;99.90;;;;;;5093687;28;19920;-71
2022/10/26 11:19:18;;;;;;;;;;;16.80;99.90;;;;;;5093526;28;19924;-71
2022/10/26 11:21:46;;;;;;;;;;;16.80;99.90;;;;;;5093438;28;19970;-71
2022/10/26 11:24:23;;;;;;;;;;;17.10;99.90;;;;;;5063129;28;19928;-70
2022/10/26 11:26:58;;;;;;;;;;;17.10;99.90;;;;;;5039378;28;19990;-71
2022/10/26 11:29:33;;;;;;;;;;;17.10;99.90;;;;;;5055791;28;19921;-72
2022/10/26 11:32:25;;;;;;;;;;;17.00;99.90;;;;;;5070376;28;19921;-71
2022/10/26 11:34:56;;;;;;;;;;;17.20;99.90;;;;;;5050205;28;20400;-71
2022/10/26 11:37:22;;;;;;;;;;;17.00;99.90;;;;;;5095775;28;20049;-71
2022/10/26 11:40:00;;;;;;;;;;;17.30;99.90;;;;;;5096237;28;20010;-71
2022/10/26 11:42:33;;;;;;;;;;;17.80;99.90;;;;;;5113547;28;20021;-71
2022/10/26 11:45:08;;;;;;;;;;;17.30;99.90;;;;;;5094981;28;20393;-71
2022/10/26 11:47:40;;;;;;;;;;;17.40;99.90;;;;;;5114116;28;19919;-71
2022/10/26 11:50:17;;;;;;;;;;;17.60;99.90;;;;;;5093998;28;20534;-71
2022/10/26 11:52:43;;;;;;;;;;;;;;;;;;5095527;28;19924;-71
2022/10/26 11:55:10;;;;;;;;;;;17.40;99.90;;;;;;5112750;28;19930;-71
2022/10/26 11:57:36;;;;;;;;;;;17.50;99.90;;;;;;5113959;28;19919;-71
2022/10/26 12:00:16;;;;;;;;;;;17.50;99.90;;;;;;5095423;28;19926;-71
2022/10/26 12:02:42;;;;;;;;;;;17.30;99.90;;;;;;5073009;28;19921;-71
2022/10/26 12:05:08;;;;;;;;;;;17.60;99.90;;;;;;5055356;28;19939;-71
2022/10/26 12:07:39;;;;;;;;;;;17.40;99.90;;;;;;5038578;28;19927;-71
2022/10/26 12:10:11;;;;;;;;;;;17.40;99.90;;;;;;5055367;28;19966;-71
2022/10/26 12:12:37;;;;;;;;;;;17.20;99.90;;;;;;5055328;28;19974;-71
2022/10/26 12:15:23;;;;;;;;;;;17.50;99.90;;;;;;5071844;28;19928;-71
2022/10/26 12:17:51;;;;;;;;;;;17.20;99.90;;;;;;5072461;28;20432;-71
2022/10/26 12:20:36;;;;;;;;;;;17.20;99.90;;;;;;5054547;28;19927;-72
2022/10/26 12:23:02;;;;;;;;;;;17.00;99.90;;;;;;5055612;28;19924;-71
2022/10/26 12:25:28;;;;;;;;;;;17.20;99.90;;;;;;5071889;28;20082;-71
2022/10/26 12:27:55;;;;;;;;;;;17.30;99.90;;;;;;5059021;28;20422;-71
2022/10/26 12:30:20;;;;;;;;;;;17.30;99.90;;;;;;5061464;28;19925;-71
2022/10/26 12:32:47;;;;;;;;;;;16.70;99.90;;;;;;5058581;28;20394;-71
2022/10/26 12:35:27;;;;;;;;;;;17.70;99.90;;;;;;5070549;28;19928;-70
2022/10/26 12:37:53;;;;;;;;;;;17.40;99.90;;;;;;5039043;28;20026;-71
2022/10/26 12:40:38;;;;;;;;;;;17.30;99.90;;;;;;5054607;28;20422;-71
2022/10/26 12:43:13;;;;;;;;;;;17.30;99.90;;;;;;5054026;28;20011;-71
2022/10/26 12:45:42;;;;;;;;;;;17.20;99.90;;;;;;5053623;28;19963;-71
2022/10/26 12:48:20;;;;;;;;;;;17.40;99.90;;;;;;5071799;28;19926;-71
2022/10/26 12:50:45;;;;;;;;;;;17.30;99.90;;;;;;5072531;28;19920;-72
2022/10/26 12:53:12;;;;;;;;;;;17.40;99.90;;;;;;5073404;28;19973;-71
2022/10/26 12:55:49;;;;;;;;;;;17.30;99.90;;;;;;5067563;28;19928;-71
2022/10/26 12:58:17;;;;;;;;;;;17.20;99.90;;;;;;5089083;28;19920;-71
2022/10/26 13:00:47;;;;;;;;;;;17.30;99.90;;;;;;5092030;28;20389;-71
2022/10/26 13:03:31;;;;;;;;;;;17.50;99.90;;;;;;5073890;28;20357;-74
2022/10/26 13:05:59;;;;;;;;;;;17.20;99.90;;;;;;5090792;28;19964;-71
2022/10/26 13:08:26;;;;;;;;;;;17.30;99.90;;;;;;5073368;28;20275;-71
2022/10/26 13:10:53;;;;;;;;;;;;;;;;;;5094038;28;19942;-71
2022/10/26 13:13:22;;;;;;;;;;;17.40;99.90;;;;;;5091494;28;19923;-71
2022/10/26 13:15:52;;;;;;;;;;;17.50;99.90;;;;;;5067746;28;19924;-71
2022/10/26 13:18:19;;;;;;;;;;;17.40;99.90;;;;;;5090849;28;19920;-71
2022/10/26 13:21:03;;;;;;;;;;;17.50;99.90;;;;;;5087511;28;19920;-71
2022/10/26 13:23:30;;;;;;;;;;;17.50;99.90;;;;;;5072024;28;19940;-71
2022/10/26 13:26:01;;;;;;;;;;;17.60;99.90;;;;;;5091248;28;19955;-71
2022/10/26 13:28:36;;;;;;;;;;;17.60;99.90;;;;;;5105568;28;19923;-71
2022/10/26 13:31:02;;;;;;;;;;;17.50;99.90;;;;;;5099752;28;19928;-71
2022/10/26 13:33:35;;;;;;;;;;;17.50;99.90;;;;;;5073727;28;19984;-71
2022/10/26 13:36:02;;;;;;;;;;;17.30;99.90;;;;;;5091278;28;19990;-69
2022/10/26 13:38:30;;;;;;;;;;;17.60;99.90;;;;;;5073509;28;20429;-69
2022/10/26 13:41:04;;;;;;;;;;;17.60;99.90;;;;;;5091632;28;19920;-69
2022/10/26 13:43:30;;;;;;;;;;;17.30;99.90;;;;;;5092723;28;19928;-69
2022/10/26 13:46:01;;;;;;;;;;;17.40;99.90;;;;;;5091337;28;19920;-69
2022/10/26 13:48:39;;;;;;;;;;;17.50;99.90;;;;;;5073309;28;19924;-70
2022/10/26 13:51:19;;;;;;;;;;;17.40;99.90;;;;;;5091532;28;19966;-69
2022/10/26 13:54:10;;;;;;;;;;;17.50;99.90;;;;;;5072851;28;20006;-69
2022/10/26 13:56:41;;;;;;;;;;;17.50;99.90;;;;;;5073827;28;19955;-69
2022/10/26 13:59:12;;;;;;;;;;;17.60;99.90;;;;;;5073432;28;20375;-69
2022/10/26 14:01:37;;;;;;;;;;;17.80;99.90;;;;;;5063657;28;19921;-71
2022/10/26 14:04:16;;;;;;;;;;;18.00;99.90;;;;;;5072301;28;19928;-71
2022/10/26 14:06:46;;;;;;;;;;;17.70;99.90;;;;;;5056762;28;19928;-71
2022/10/26 14:09:13;;;;;;;;;;;17.80;99.90;;;;;;5072905;28;19924;-72
2022/10/26 14:11:41;;;;;;;;;;;17.70;99.90;;;;;;5091334;28;19931;-71
2022/10/26 14:14:12;;;;;;;;;;;17.60;99.90;;;;;;5090509;28;19924;-69
2022/10/26 14:16:45;;;;;;;;;;;17.80;99.90;;;;;;5074053;28;19967;-69
2022/10/26 14:19:21;;;;;;;;;;;18.30;99.90;;;;;;5113350;28;19973;-70
2022/10/26 14:21:48;;;;;;;;;;;17.60;99.90;;;;;;5115650;28;19926;-70
2022/10/26 14:24:27;;;;;;;;;;;17.70;99.90;;;;;;5095860;28;19924;-71
2022/10/26 14:26:52;;;;;;;;;;;17.60;99.90;;;;;;5080398;28;19973;-71
2022/10/26 14:29:23;;;;;;;;;;;17.60;99.90;;;;;;5096916;28;19931;-71
2022/10/26 14:31:49;;;;;;;;;;;17.60;99.90;;;;;;5087562;28;19923;-71
2022/10/26 14:34:15;;;;;;;;;;;18.00;99.90;;;;;;5096250;28;19919;-71